aviador You're here:

KPVU Decoded Metar

PROVO MUNI in UT, USA
Report Time2018-02-25 22:56:00
UTC Time2018-02-25 23:44:15
Flight Rules vfr VFR
Wind120° at 07 kt
W.Decomp.*RWY 13: 6.5 kt HW 2.6 kt LCW
RWY 18: 2.2 kt HW 6.7 kt LCW
W.Rank120° ranks 1
Current wind is above 120° avg. (5.9)
Visibility9999 m
Phenomena:N/A
Clouds:N/A
Expected CloudBase > 4,000 ft AGL from Temp-Dew spread
CeilingNone
Temp-1°C (ISA -7)
Dew Point-11°C (47% RH)
AAT-6.6°C
QNH1023 hPa
Density Alt3,343 ft
Elevation4,491 ft
Report Wrong Elevation
Raw Report
METAR KPVU 252256Z 12007KT 10SM CLR M01/M11 A3021 RMK AO2 SLP264 T10111111=

Extra information for KPVU:More info

Metar Taf Metar & Taf Last 4 Metars F.Rules Stats Wind Profile Meteogram Temp Stats Airport Information Weather charts Add Link Nearby VenuesMetar ALERT Operation Metar Decoded Social comments

AIRNAV info for KPVU